sensor_id;sensor_type;location;lat;lon;timestamp;P1;durP1;ratioP1;P2;durP2;ratioP2
80559;SDS011;70065;42.700;23.316;2023-07-29T00:01:40;2.33;;;2.13;;
80559;SDS011;70065;42.700;23.316;2023-07-29T00:04:06;2.50;;;2.30;;
80559;SDS011;70065;42.700;23.316;2023-07-29T00:06:34;2.25;;;2.05;;
80559;SDS011;70065;42.700;23.316;2023-07-29T00:09:00;2.85;;;2.35;;
80559;SDS011;70065;42.700;23.316;2023-07-29T00:11:27;2.35;;;2.15;;
80559;SDS011;70065;42.700;23.316;2023-07-29T00:13:52;3.58;;;2.53;;
80559;SDS011;70065;42.700;23.316;2023-07-29T00:16:18;2.55;;;2.22;;
80559;SDS011;70065;42.700;23.316;2023-07-29T00:18:47;2.58;;;2.20;;
80559;SDS011;70065;42.700;23.316;2023-07-29T00:21:13;2.70;;;2.50;;
80559;SDS011;70065;42.700;23.316;2023-07-29T00:23:39;2.90;;;2.53;;
80559;SDS011;70065;42.700;23.316;2023-07-29T00:26:05;2.33;;;2.13;;
80559;SDS011;70065;42.700;23.316;2023-07-29T00:28:31;2.55;;;2.35;;
80559;SDS011;70065;42.700;23.316;2023-07-29T00:30:56;2.60;;;2.40;;
80559;SDS011;70065;42.700;23.316;2023-07-29T00:33:22;2.55;;;2.35;;
80559;SDS011;70065;42.700;23.316;2023-07-29T00:35:48;2.60;;;2.40;;
80559;SDS011;70065;42.700;23.316;2023-07-29T00:38:14;2.30;;;2.10;;
80559;SDS011;70065;42.700;23.316;2023-07-29T00:40:39;2.53;;;2.17;;
80559;SDS011;70065;42.700;23.316;2023-07-29T00:43:05;2.60;;;2.40;;
80559;SDS011;70065;42.700;23.316;2023-07-29T00:45:31;3.33;;;2.20;;
80559;SDS011;70065;42.700;23.316;2023-07-29T00:47:58;2.42;;;2.20;;
80559;SDS011;70065;42.700;23.316;2023-07-29T00:50:24;2.78;;;2.47;;
80559;SDS011;70065;42.700;23.316;2023-07-29T00:52:52;2.60;;;2.40;;
80559;SDS011;70065;42.700;23.316;2023-07-29T00:55:19;2.72;;;2.53;;
80559;SDS011;70065;42.700;23.316;2023-07-29T00:57:45;3.88;;;2.60;;
80559;SDS011;70065;42.700;23.316;2023-07-29T01:00:14;2.58;;;2.33;;
80559;SDS011;70065;42.700;23.316;2023-07-29T01:02:42;2.67;;;2.30;;
80559;SDS011;70065;42.700;23.316;2023-07-29T01:05:08;3.13;;;2.50;;
80559;SDS011;70065;42.700;23.316;2023-07-29T01:10:40;2.45;;;2.25;;
80559;SDS011;70065;42.700;23.316;2023-07-29T01:13:48;2.63;;;2.40;;
80559;SDS011;70065;42.700;23.316;2023-07-29T01:16:38;2.55;;;2.35;;
80559;SDS011;70065;42.700;23.316;2023-07-29T01:19:07;2.67;;;2.35;;
80559;SDS011;70065;42.700;23.316;2023-07-29T01:21:52;2.72;;;2.50;;
80559;SDS011;70065;42.700;23.316;2023-07-29T01:24:20;2.80;;;2.40;;
80559;SDS011;70065;42.700;23.316;2023-07-29T01:26:45;2.65;;;2.45;;
80559;SDS011;70065;42.700;23.316;2023-07-29T01:29:11;2.45;;;2.25;;
80559;SDS011;70065;42.700;23.316;2023-07-29T01:31:38;2.55;;;2.28;;
80559;SDS011;70065;42.700;23.316;2023-07-29T01:36:37;3.17;;;2.17;;
80559;SDS011;70065;42.700;23.316;2023-07-29T01:39:07;2.60;;;2.40;;
80559;SDS011;70065;42.700;23.316;2023-07-29T01:41:34;2.70;;;2.30;;
80559;SDS011;70065;42.700;23.316;2023-07-29T01:44:00;2.45;;;2.25;;
80559;SDS011;70065;42.700;23.316;2023-07-29T01:46:27;2.53;;;2.30;;
80559;SDS011;70065;42.700;23.316;2023-07-29T01:48:54;3.42;;;2.33;;
80559;SDS011;70065;42.700;23.316;2023-07-29T01:51:20;2.60;;;2.40;;
80559;SDS011;70065;42.700;23.316;2023-07-29T01:53:46;2.80;;;2.45;;
80559;SDS011;70065;42.700;23.316;2023-07-29T01:56:12;2.78;;;2.42;;
80559;SDS011;70065;42.700;23.316;2023-07-29T01:58:38;2.67;;;2.20;;
80559;SDS011;70065;42.700;23.316;2023-07-29T02:01:03;2.75;;;2.50;;
80559;SDS011;70065;42.700;23.316;2023-07-29T02:03:29;2.42;;;2.22;;
80559;SDS011;70065;42.700;23.316;2023-07-29T02:05:55;3.28;;;2.40;;
80559;SDS011;70065;42.700;23.316;2023-07-29T02:08:21;2.50;;;2.30;;
80559;SDS011;70065;42.700;23.316;2023-07-29T02:10:46;3.65;;;2.55;;
80559;SDS011;70065;42.700;23.316;2023-07-29T02:13:13;2.17;;;2.00;;
80559;SDS011;70065;42.700;23.316;2023-07-29T02:15:39;2.40;;;2.20;;
80559;SDS011;70065;42.700;23.316;2023-07-29T02:18:05;2.83;;;2.40;;
80559;SDS011;70065;42.700;23.316;2023-07-29T02:20:32;3.30;;;2.63;;
80559;SDS011;70065;42.700;23.316;2023-07-29T02:22:58;2.70;;;2.30;;
80559;SDS011;70065;42.700;23.316;2023-07-29T02:25:24;3.00;;;2.38;;
80559;SDS011;70065;42.700;23.316;2023-07-29T02:27:49;2.53;;;2.33;;
80559;SDS011;70065;42.700;23.316;2023-07-29T02:30:15;2.85;;;2.50;;
80559;SDS011;70065;42.700;23.316;2023-07-29T02:32:41;2.67;;;2.47;;
80559;SDS011;70065;42.700;23.316;2023-07-29T02:35:06;2.60;;;2.40;;
80559;SDS011;70065;42.700;23.316;2023-07-29T02:37:32;2.72;;;2.47;;
80559;SDS011;70065;42.700;23.316;2023-07-29T02:39:59;2.50;;;2.30;;
80559;SDS011;70065;42.700;23.316;2023-07-29T02:42:25;2.80;;;2.50;;
80559;SDS011;70065;42.700;23.316;2023-07-29T02:44:51;2.30;;;2.10;;
80559;SDS011;70065;42.700;23.316;2023-07-29T02:47:17;2.58;;;2.38;;
80559;SDS011;70065;42.700;23.316;2023-07-29T02:49:42;2.50;;;2.30;;
80559;SDS011;70065;42.700;23.316;2023-07-29T02:52:08;2.95;;;2.28;;
80559;SDS011;70065;42.700;23.316;2023-07-29T02:54:34;2.60;;;2.40;;
80559;SDS011;70065;42.700;23.316;2023-07-29T02:57:00;2.42;;;2.22;;
80559;SDS011;70065;42.700;23.316;2023-07-29T02:59:26;2.47;;;2.25;;
80559;SDS011;70065;42.700;23.316;2023-07-29T03:01:52;2.72;;;2.17;;
80559;SDS011;70065;42.700;23.316;2023-07-29T03:04:18;2.38;;;2.17;;
80559;SDS011;70065;42.700;23.316;2023-07-29T03:06:45;2.58;;;2.38;;
80559;SDS011;70065;42.700;23.316;2023-07-29T03:09:13;2.53;;;2.33;;
80559;SDS011;70065;42.700;23.316;2023-07-29T03:11:39;2.45;;;2.25;;
80559;SDS011;70065;42.700;23.316;2023-07-29T03:14:05;2.40;;;2.20;;
80559;SDS011;70065;42.700;23.316;2023-07-29T03:16:31;2.35;;;2.15;;
80559;SDS011;70065;42.700;23.316;2023-07-29T03:18:56;2.65;;;2.45;;
80559;SDS011;70065;42.700;23.316;2023-07-29T03:21:22;2.72;;;2.50;;
80559;SDS011;70065;42.700;23.316;2023-07-29T03:23:48;2.60;;;2.40;;
80559;SDS011;70065;42.700;23.316;2023-07-29T03:26:14;2.95;;;2.13;;
80559;SDS011;70065;42.700;23.316;2023-07-29T03:28:41;2.85;;;2.47;;
80559;SDS011;70065;42.700;23.316;2023-07-29T03:31:07;3.00;;;2.50;;
80559;SDS011;70065;42.700;23.316;2023-07-29T03:33:33;2.22;;;2.03;;
80559;SDS011;70065;42.700;23.316;2023-07-29T03:35:59;2.65;;;2.45;;
80559;SDS011;70065;42.700;23.316;2023-07-29T03:38:25;3.42;;;2.70;;
80559;SDS011;70065;42.700;23.316;2023-07-29T03:40:51;2.40;;;2.20;;
80559;SDS011;70065;42.700;23.316;2023-07-29T03:43:18;2.75;;;2.50;;
80559;SDS011;70065;42.700;23.316;2023-07-29T03:45:44;2.40;;;2.20;;
80559;SDS011;70065;42.700;23.316;2023-07-29T03:48:11;2.50;;;2.30;;
80559;SDS011;70065;42.700;23.316;2023-07-29T03:50:36;2.50;;;2.30;;
80559;SDS011;70065;42.700;23.316;2023-07-29T03:53:03;2.80;;;2.50;;
80559;SDS011;70065;42.700;23.316;2023-07-29T03:55:29;3.22;;;2.60;;
80559;SDS011;70065;42.700;23.316;2023-07-29T03:57:59;2.33;;;2.13;;
80559;SDS011;70065;42.700;23.316;2023-07-29T04:00:25;2.90;;;2.42;;
80559;SDS011;70065;42.700;23.316;2023-07-29T04:02:51;2.58;;;2.30;;
80559;SDS011;70065;42.700;23.316;2023-07-29T04:05:16;2.35;;;2.13;;
80559;SDS011;70065;42.700;23.316;2023-07-29T04:07:42;2.40;;;2.10;;
80559;SDS011;70065;42.700;23.316;2023-07-29T04:10:08;2.40;;;1.77;;
80559;SDS011;70065;42.700;23.316;2023-07-29T04:12:34;2.10;;;1.90;;
80559;SDS011;70065;42.700;23.316;2023-07-29T04:15:00;2.10;;;1.90;;
80559;SDS011;70065;42.700;23.316;2023-07-29T04:17:26;1.95;;;1.75;;
80559;SDS011;70065;42.700;23.316;2023-07-29T04:19:52;2.05;;;1.70;;
80559;SDS011;70065;42.700;23.316;2023-07-29T04:22:17;1.70;;;1.60;;
80559;SDS011;70065;42.700;23.316;2023-07-29T04:24:43;2.05;;;1.80;;
80559;SDS011;70065;42.700;23.316;2023-07-29T04:27:09;2.08;;;1.88;;
80559;SDS011;70065;42.700;23.316;2023-07-29T04:29:35;1.70;;;1.60;;
80559;SDS011;70065;42.700;23.316;2023-07-29T04:32:01;1.92;;;1.65;;
80559;SDS011;70065;42.700;23.316;2023-07-29T04:34:27;1.65;;;1.50;;
80559;SDS011;70065;42.700;23.316;2023-07-29T04:36:53;1.80;;;1.65;;
80559;SDS011;70065;42.700;23.316;2023-07-29T04:39:19;1.40;;;1.30;;
80559;SDS011;70065;42.700;23.316;2023-07-29T04:41:45;1.63;;;1.20;;
80559;SDS011;70065;42.700;23.316;2023-07-29T04:44:11;1.60;;;1.50;;
80559;SDS011;70065;42.700;23.316;2023-07-29T04:46:37;1.30;;;1.20;;
80559;SDS011;70065;42.700;23.316;2023-07-29T04:49:05;1.20;;;1.10;;
80559;SDS011;70065;42.700;23.316;2023-07-29T04:51:31;1.63;;;1.30;;
80559;SDS011;70065;42.700;23.316;2023-07-29T04:53:59;1.27;;;1.02;;
80559;SDS011;70065;42.700;23.316;2023-07-29T04:56:25;1.60;;;1.27;;
80559;SDS011;70065;42.700;23.316;2023-07-29T04:58:51;1.48;;;1.15;;
80559;SDS011;70065;42.700;23.316;2023-07-29T05:01:18;1.27;;;1.10;;
80559;SDS011;70065;42.700;23.316;2023-07-29T05:03:43;1.40;;;1.30;;
80559;SDS011;70065;42.700;23.316;2023-07-29T05:06:09;1.33;;;1.10;;
80559;SDS011;70065;42.700;23.316;2023-07-29T05:08:35;0.98;;;0.98;;
80559;SDS011;70065;42.700;23.316;2023-07-29T05:11:01;1.27;;;1.17;;
80559;SDS011;70065;42.700;23.316;2023-07-29T05:13:30;0.90;;;0.80;;
80559;SDS011;70065;42.700;23.316;2023-07-29T05:15:55;1.33;;;1.23;;
80559;SDS011;70065;42.700;23.316;2023-07-29T05:18:21;1.50;;;1.13;;
80559;SDS011;70065;42.700;23.316;2023-07-29T05:20:48;1.65;;;1.15;;
80559;SDS011;70065;42.700;23.316;2023-07-29T05:23:14;1.25;;;1.10;;
80559;SDS011;70065;42.700;23.316;2023-07-29T05:25:39;0.73;;;0.73;;
80559;SDS011;70065;42.700;23.316;2023-07-29T05:28:05;1.20;;;0.88;;
80559;SDS011;70065;42.700;23.316;2023-07-29T05:30:32;0.80;;;0.80;;
80559;SDS011;70065;42.700;23.316;2023-07-29T05:32:59;1.65;;;1.10;;
80559;SDS011;70065;42.700;23.316;2023-07-29T05:35:25;0.80;;;0.80;;
80559;SDS011;70065;42.700;23.316;2023-07-29T05:37:51;1.73;;;1.10;;
80559;SDS011;70065;42.700;23.316;2023-07-29T05:40:16;0.88;;;0.70;;
80559;SDS011;70065;42.700;23.316;2023-07-29T05:42:42;2.08;;;1.23;;
80559;SDS011;70065;42.700;23.316;2023-07-29T05:45:10;1.10;;;1.00;;
80559;SDS011;70065;42.700;23.316;2023-07-29T05:47:36;1.05;;;0.70;;
80559;SDS011;70065;42.700;23.316;2023-07-29T05:50:02;1.42;;;0.88;;
80559;SDS011;70065;42.700;23.316;2023-07-29T05:52:30;0.98;;;0.85;;
80559;SDS011;70065;42.700;23.316;2023-07-29T05:54:56;0.98;;;0.90;;
80559;SDS011;70065;42.700;23.316;2023-07-29T05:57:21;1.33;;;0.70;;
80559;SDS011;70065;42.700;23.316;2023-07-29T05:59:47;1.10;;;1.00;;
80559;SDS011;70065;42.700;23.316;2023-07-29T06:02:13;1.05;;;0.93;;
80559;SDS011;70065;42.700;23.316;2023-07-29T06:04:39;2.50;;;0.90;;
80559;SDS011;70065;42.700;23.316;2023-07-29T06:07:05;0.80;;;0.70;;
80559;SDS011;70065;42.700;23.316;2023-07-29T06:09:31;1.35;;;0.80;;
80559;SDS011;70065;42.700;23.316;2023-07-29T06:11:57;1.20;;;0.80;;
80559;SDS011;70065;42.700;23.316;2023-07-29T06:14:22;0.80;;;0.68;;
80559;SDS011;70065;42.700;23.316;2023-07-29T06:16:49;1.33;;;1.00;;
80559;SDS011;70065;42.700;23.316;2023-07-29T06:19:15;1.10;;;1.00;;
80559;SDS011;70065;42.700;23.316;2023-07-29T06:21:40;1.17;;;0.90;;
80559;SDS011;70065;42.700;23.316;2023-07-29T06:24:07;1.45;;;1.00;;
80559;SDS011;70065;42.700;23.316;2023-07-29T06:26:32;0.77;;;0.68;;
80559;SDS011;70065;42.700;23.316;2023-07-29T06:28:58;0.80;;;0.63;;
80559;SDS011;70065;42.700;23.316;2023-07-29T06:31:24;0.82;;;0.80;;
80559;SDS011;70065;42.700;23.316;2023-07-29T06:33:51;1.20;;;0.80;;
80559;SDS011;70065;42.700;23.316;2023-07-29T06:36:19;1.23;;;1.00;;
80559;SDS011;70065;42.700;23.316;2023-07-29T06:38:45;1.02;;;0.90;;
80559;SDS011;70065;42.700;23.316;2023-07-29T06:41:11;1.02;;;0.70;;
80559;SDS011;70065;42.700;23.316;2023-07-29T06:43:37;0.73;;;0.73;;
80559;SDS011;70065;42.700;23.316;2023-07-29T06:46:02;1.08;;;0.90;;
80559;SDS011;70065;42.700;23.316;2023-07-29T06:48:28;1.13;;;0.80;;
80559;SDS011;70065;42.700;23.316;2023-07-29T06:50:54;0.90;;;0.80;;
80559;SDS011;70065;42.700;23.316;2023-07-29T06:53:27;0.80;;;0.80;;
80559;SDS011;70065;42.700;23.316;2023-07-29T06:55:57;1.35;;;0.90;;
80559;SDS011;70065;42.700;23.316;2023-07-29T06:58:26;0.75;;;0.70;;
80559;SDS011;70065;42.700;23.316;2023-07-29T07:00:52;1.10;;;1.00;;
80559;SDS011;70065;42.700;23.316;2023-07-29T07:03:18;1.42;;;0.90;;
80559;SDS011;70065;42.700;23.316;2023-07-29T07:05:44;0.70;;;0.70;;
80559;SDS011;70065;42.700;23.316;2023-07-29T07:08:10;0.88;;;0.88;;
80559;SDS011;70065;42.700;23.316;2023-07-29T07:10:36;0.90;;;0.80;;
80559;SDS011;70065;42.700;23.316;2023-07-29T07:13:02;1.52;;;1.00;;
80559;SDS011;70065;42.700;23.316;2023-07-29T07:15:27;0.95;;;0.90;;
80559;SDS011;70065;42.700;23.316;2023-07-29T07:17:53;1.20;;;0.98;;
80559;SDS011;70065;42.700;23.316;2023-07-29T07:20:19;0.88;;;0.80;;
80559;SDS011;70065;42.700;23.316;2023-07-29T07:22:45;1.23;;;1.13;;
80559;SDS011;70065;42.700;23.316;2023-07-29T07:25:10;1.50;;;1.05;;
80559;SDS011;70065;42.700;23.316;2023-07-29T07:27:36;0.98;;;0.88;;
80559;SDS011;70065;42.700;23.316;2023-07-29T07:30:02;1.00;;;0.88;;
80559;SDS011;70065;42.700;23.316;2023-07-29T07:32:28;1.10;;;0.90;;
80559;SDS011;70065;42.700;23.316;2023-07-29T07:34:54;1.10;;;1.00;;
80559;SDS011;70065;42.700;23.316;2023-07-29T07:37:20;1.00;;;0.90;;
80559;SDS011;70065;42.700;23.316;2023-07-29T07:39:46;1.15;;;1.00;;
80559;SDS011;70065;42.700;23.316;2023-07-29T07:42:11;1.42;;;1.10;;
80559;SDS011;70065;42.700;23.316;2023-07-29T07:44:37;1.17;;;1.05;;
80559;SDS011;70065;42.700;23.316;2023-07-29T07:47:03;1.40;;;1.30;;
80559;SDS011;70065;42.700;23.316;2023-07-29T07:49:29;1.20;;;1.10;;
80559;SDS011;70065;42.700;23.316;2023-07-29T07:51:54;1.20;;;1.10;;
80559;SDS011;70065;42.700;23.316;2023-07-29T07:54:20;1.55;;;1.30;;
80559;SDS011;70065;42.700;23.316;2023-07-29T07:56:46;1.45;;;1.35;;
80559;SDS011;70065;42.700;23.316;2023-07-29T07:59:12;1.48;;;0.98;;
80559;SDS011;70065;42.700;23.316;2023-07-29T08:01:38;1.48;;;1.27;;
80559;SDS011;70065;42.700;23.316;2023-07-29T08:04:04;1.95;;;1.23;;
80559;SDS011;70065;42.700;23.316;2023-07-29T08:06:31;2.40;;;1.45;;
80559;SDS011;70065;42.700;23.316;2023-07-29T08:08:57;1.60;;;1.50;;
80559;SDS011;70065;42.700;23.316;2023-07-29T08:11:23;1.50;;;1.40;;
80559;SDS011;70065;42.700;23.316;2023-07-29T08:13:50;1.48;;;1.35;;
80559;SDS011;70065;42.700;23.316;2023-07-29T08:16:16;1.35;;;1.25;;
80559;SDS011;70065;42.700;23.316;2023-07-29T08:18:42;1.20;;;1.10;;
80559;SDS011;70065;42.700;23.316;2023-07-29T08:21:08;2.00;;;1.60;;
80559;SDS011;70065;42.700;23.316;2023-07-29T08:23:34;1.55;;;1.45;;
80559;SDS011;70065;42.700;23.316;2023-07-29T08:26:04;1.40;;;1.30;;
80559;SDS011;70065;42.700;23.316;2023-07-29T08:28:33;1.40;;;1.30;;
80559;SDS011;70065;42.700;23.316;2023-07-29T08:30:59;1.52;;;1.40;;
80559;SDS011;70065;42.700;23.316;2023-07-29T08:33:25;2.05;;;1.30;;
80559;SDS011;70065;42.700;23.316;2023-07-29T08:35:52;1.20;;;1.10;;
80559;SDS011;70065;42.700;23.316;2023-07-29T08:38:18;1.30;;;1.20;;
80559;SDS011;70065;42.700;23.316;2023-07-29T08:41:04;1.40;;;1.30;;
80559;SDS011;70065;42.700;23.316;2023-07-29T08:43:31;1.52;;;1.30;;
80559;SDS011;70065;42.700;23.316;2023-07-29T08:45:59;1.60;;;1.50;;
80559;SDS011;70065;42.700;23.316;2023-07-29T08:48:29;1.55;;;1.42;;
80559;SDS011;70065;42.700;23.316;2023-07-29T08:51:01;1.45;;;1.35;;
80559;SDS011;70065;42.700;23.316;2023-07-29T08:53:29;1.38;;;1.20;;
80559;SDS011;70065;42.700;23.316;2023-07-29T08:55:57;2.05;;;1.85;;
80559;SDS011;70065;42.700;23.316;2023-07-29T08:58:23;1.77;;;1.50;;
80559;SDS011;70065;42.700;23.316;2023-07-29T09:00:50;1.50;;;1.40;;
80559;SDS011;70065;42.700;23.316;2023-07-29T09:03:17;1.58;;;1.40;;
80559;SDS011;70065;42.700;23.316;2023-07-29T09:05:45;1.98;;;1.70;;
80559;SDS011;70065;42.700;23.316;2023-07-29T09:08:11;2.08;;;1.70;;
80559;SDS011;70065;42.700;23.316;2023-07-29T09:10:37;1.70;;;1.60;;
80559;SDS011;70065;42.700;23.316;2023-07-29T09:13:03;1.70;;;1.60;;
80559;SDS011;70065;42.700;23.316;2023-07-29T09:15:30;1.90;;;1.80;;
80559;SDS011;70065;42.700;23.316;2023-07-29T09:17:57;2.17;;;1.70;;
80559;SDS011;70065;42.700;23.316;2023-07-29T09:20:27;2.05;;;1.90;;
80559;SDS011;70065;42.700;23.316;2023-07-29T09:22:54;1.80;;;1.70;;
80559;SDS011;70065;42.700;23.316;2023-07-29T09:25:24;1.80;;;1.70;;
80559;SDS011;70065;42.700;23.316;2023-07-29T09:27:59;2.35;;;1.90;;
80559;SDS011;70065;42.700;23.316;2023-07-29T09:30:26;1.70;;;1.60;;
80559;SDS011;70065;42.700;23.316;2023-07-29T09:32:56;1.98;;;1.83;;
80559;SDS011;70065;42.700;23.316;2023-07-29T09:35:23;1.88;;;1.77;;
80559;SDS011;70065;42.700;23.316;2023-07-29T09:37:51;1.98;;;1.77;;
80559;SDS011;70065;42.700;23.316;2023-07-29T09:40:17;2.47;;;1.80;;
80559;SDS011;70065;42.700;23.316;2023-07-29T09:42:53;1.90;;;1.80;;
80559;SDS011;70065;42.700;23.316;2023-07-29T09:45:26;1.90;;;1.80;;
80559;SDS011;70065;42.700;23.316;2023-07-29T09:47:57;1.70;;;1.60;;
80559;SDS011;70065;42.700;23.316;2023-07-29T09:50:24;1.70;;;1.60;;
80559;SDS011;70065;42.700;23.316;2023-07-29T09:52:51;1.88;;;1.65;;
80559;SDS011;70065;42.700;23.316;2023-07-29T09:55:18;2.20;;;2.00;;
80559;SDS011;70065;42.700;23.316;2023-07-29T09:57:46;1.98;;;1.88;;
80559;SDS011;70065;42.700;23.316;2023-07-29T10:00:12;1.90;;;1.80;;
80559;SDS011;70065;42.700;23.316;2023-07-29T10:02:42;2.05;;;1.90;;
80559;SDS011;70065;42.700;23.316;2023-07-29T10:05:08;2.40;;;2.20;;
80559;SDS011;70065;42.700;23.316;2023-07-29T10:07:38;2.67;;;2.00;;
80559;SDS011;70065;42.700;23.316;2023-07-29T10:10:04;2.10;;;1.90;;
80559;SDS011;70065;42.700;23.316;2023-07-29T10:12:32;1.95;;;1.80;;
80559;SDS011;70065;42.700;23.316;2023-07-29T10:14:59;2.15;;;2.00;;
80559;SDS011;70065;42.700;23.316;2023-07-29T10:17:30;2.33;;;2.00;;
80559;SDS011;70065;42.700;23.316;2023-07-29T10:19:59;2.13;;;1.92;;
80559;SDS011;70065;42.700;23.316;2023-07-29T10:22:27;2.08;;;1.88;;
80559;SDS011;70065;42.700;23.316;2023-07-29T10:25:01;2.10;;;2.00;;
80559;SDS011;70065;42.700;23.316;2023-07-29T10:27:35;2.47;;;2.17;;
80559;SDS011;70065;42.700;23.316;2023-07-29T10:30:18;2.35;;;2.15;;
80559;SDS011;70065;42.700;23.316;2023-07-29T10:32:44;2.38;;;2.17;;
80559;SDS011;70065;42.700;23.316;2023-07-29T10:35:13;2.05;;;1.88;;
80559;SDS011;70065;42.700;23.316;2023-07-29T10:37:40;2.17;;;1.98;;
80559;SDS011;70065;42.700;23.316;2023-07-29T10:40:07;2.28;;;2.08;;
80559;SDS011;70065;42.700;23.316;2023-07-29T10:42:35;2.85;;;2.20;;
80559;SDS011;70065;42.700;23.316;2023-07-29T10:45:20;2.33;;;2.13;;
80559;SDS011;70065;42.700;23.316;2023-07-29T10:47:47;2.00;;;1.80;;
80559;SDS011;70065;42.700;23.316;2023-07-29T10:50:19;2.40;;;1.90;;
80559;SDS011;70065;42.700;23.316;2023-07-29T10:52:50;2.20;;;2.00;;
80559;SDS011;70065;42.700;23.316;2023-07-29T10:57:52;2.30;;;2.10;;
80559;SDS011;70065;42.700;23.316;2023-07-29T11:00:30;2.35;;;2.15;;
80559;SDS011;70065;42.700;23.316;2023-07-29T11:02:59;2.83;;;2.00;;
80559;SDS011;70065;42.700;23.316;2023-07-29T11:05:45;2.20;;;2.00;;
80559;SDS011;70065;42.700;23.316;2023-07-29T11:13:28;2.25;;;2.00;;
80559;SDS011;70065;42.700;23.316;2023-07-29T11:15:55;2.75;;;2.30;;
80559;SDS011;70065;42.700;23.316;2023-07-29T11:18:25;2.30;;;2.10;;
80559;SDS011;70065;42.700;23.316;2023-07-29T11:20:59;2.10;;;1.95;;
80559;SDS011;70065;42.700;23.316;2023-07-29T11:23:30;1.80;;;1.70;;
80559;SDS011;70065;42.700;23.316;2023-07-29T11:26:01;1.90;;;1.80;;
80559;SDS011;70065;42.700;23.316;2023-07-29T11:28:27;2.30;;;1.98;;
80559;SDS011;70065;42.700;23.316;2023-07-29T11:30:54;1.95;;;1.85;;
80559;SDS011;70065;42.700;23.316;2023-07-29T11:33:21;2.17;;;1.98;;
80559;SDS011;70065;42.700;23.316;2023-07-29T11:35:52;1.88;;;1.77;;
80559;SDS011;70065;42.700;23.316;2023-07-29T11:38:19;1.90;;;1.80;;
80559;SDS011;70065;42.700;23.316;2023-07-29T11:40:56;1.88;;;1.77;;
80559;SDS011;70065;42.700;23.316;2023-07-29T11:43:24;2.20;;;1.95;;
80559;SDS011;70065;42.700;23.316;2023-07-29T11:45:50;2.40;;;2.20;;
80559;SDS011;70065;42.700;23.316;2023-07-29T11:48:17;2.15;;;1.98;;
80559;SDS011;70065;42.700;23.316;2023-07-29T11:50:43;2.55;;;2.05;;
80559;SDS011;70065;42.700;23.316;2023-07-29T11:53:10;1.90;;;1.80;;
80559;SDS011;70065;42.700;23.316;2023-07-29T11:55:36;2.25;;;2.05;;
80559;SDS011;70065;42.700;23.316;2023-07-29T11:58:02;3.03;;;2.22;;
80559;SDS011;70065;42.700;23.316;2023-07-29T12:00:29;1.98;;;1.88;;
80559;SDS011;70065;42.700;23.316;2023-07-29T12:02:55;2.33;;;2.13;;
80559;SDS011;70065;42.700;23.316;2023-07-29T12:05:23;1.73;;;1.63;;
80559;SDS011;70065;42.700;23.316;2023-07-29T12:07:50;1.90;;;1.80;;
80559;SDS011;70065;42.700;23.316;2023-07-29T12:10:15;1.80;;;1.70;;
80559;SDS011;70065;42.700;23.316;2023-07-29T12:12:49;2.30;;;2.10;;
80559;SDS011;70065;42.700;23.316;2023-07-29T12:15:28;2.03;;;1.80;;
80559;SDS011;70065;42.700;23.316;2023-07-29T12:17:55;1.98;;;1.88;;
80559;SDS011;70065;42.700;23.316;2023-07-29T12:20:22;1.92;;;1.83;;
80559;SDS011;70065;42.700;23.316;2023-07-29T12:22:52;1.98;;;1.83;;
80559;SDS011;70065;42.700;23.316;2023-07-29T12:25:19;2.13;;;1.92;;
80559;SDS011;70065;42.700;23.316;2023-07-29T12:27:45;2.20;;;2.00;;
80559;SDS011;70065;42.700;23.316;2023-07-29T12:30:11;2.30;;;2.00;;
80559;SDS011;70065;42.700;23.316;2023-07-29T12:32:46;1.98;;;1.77;;
80559;SDS011;70065;42.700;23.316;2023-07-29T12:35:13;1.90;;;1.80;;
80559;SDS011;70065;42.700;23.316;2023-07-29T12:37:39;2.10;;;1.90;;
80559;SDS011;70065;42.700;23.316;2023-07-29T12:40:08;2.38;;;1.75;;
80559;SDS011;70065;42.700;23.316;2023-07-29T12:42:54;2.22;;;2.00;;
80559;SDS011;70065;42.700;23.316;2023-07-29T12:45:21;2.22;;;2.03;;
80559;SDS011;70065;42.700;23.316;2023-07-29T12:47:52;2.35;;;2.13;;
80559;SDS011;70065;42.700;23.316;2023-07-29T12:50:18;2.17;;;1.98;;
80559;SDS011;70065;42.700;23.316;2023-07-29T12:52:44;2.50;;;2.05;;
80559;SDS011;70065;42.700;23.316;2023-07-29T12:55:10;2.35;;;2.03;;
80559;SDS011;70065;42.700;23.316;2023-07-29T12:57:39;2.30;;;2.10;;
80559;SDS011;70065;42.700;23.316;2023-07-29T13:00:06;2.67;;;1.90;;
80559;SDS011;70065;42.700;23.316;2023-07-29T13:02:34;1.98;;;1.83;;
80559;SDS011;70065;42.700;23.316;2023-07-29T13:04:59;2.03;;;1.80;;
80559;SDS011;70065;42.700;23.316;2023-07-29T13:07:25;2.20;;;2.00;;
80559;SDS011;70065;42.700;23.316;2023-07-29T13:09:51;2.78;;;2.00;;
80559;SDS011;70065;42.700;23.316;2023-07-29T13:12:16;2.92;;;1.98;;
80559;SDS011;70065;42.700;23.316;2023-07-29T13:14:42;1.80;;;1.70;;
80559;SDS011;70065;42.700;23.316;2023-07-29T13:17:08;2.20;;;2.08;;
80559;SDS011;70065;42.700;23.316;2023-07-29T13:19:34;2.25;;;2.05;;
80559;SDS011;70065;42.700;23.316;2023-07-29T13:21:59;2.20;;;2.00;;
80559;SDS011;70065;42.700;23.316;2023-07-29T13:24:27;2.05;;;1.80;;
80559;SDS011;70065;42.700;23.316;2023-07-29T13:26:53;2.15;;;1.92;;
80559;SDS011;70065;42.700;23.316;2023-07-29T13:29:18;2.17;;;1.90;;
80559;SDS011;70065;42.700;23.316;2023-07-29T13:31:44;1.98;;;1.88;;
80559;SDS011;70065;42.700;23.316;2023-07-29T13:34:10;1.88;;;1.77;;
80559;SDS011;70065;42.700;23.316;2023-07-29T13:36:36;2.13;;;1.92;;
80559;SDS011;70065;42.700;23.316;2023-07-29T13:39:01;2.50;;;2.00;;
80559;SDS011;70065;42.700;23.316;2023-07-29T13:41:27;1.98;;;1.80;;
80559;SDS011;70065;42.700;23.316;2023-07-29T13:43:53;2.50;;;2.08;;
80559;SDS011;70065;42.700;23.316;2023-07-29T13:46:18;2.00;;;1.88;;
80559;SDS011;70065;42.700;23.316;2023-07-29T13:48:46;2.22;;;1.90;;
80559;SDS011;70065;42.700;23.316;2023-07-29T13:51:12;2.22;;;2.03;;
80559;SDS011;70065;42.700;23.316;2023-07-29T13:53:37;2.00;;;1.80;;
80559;SDS011;70065;42.700;23.316;2023-07-29T13:56:04;2.15;;;1.88;;
80559;SDS011;70065;42.700;23.316;2023-07-29T13:58:30;2.25;;;2.00;;
80559;SDS011;70065;42.700;23.316;2023-07-29T14:00:55;2.25;;;1.85;;
80559;SDS011;70065;42.700;23.316;2023-07-29T14:03:21;2.15;;;1.95;;
80559;SDS011;70065;42.700;23.316;2023-07-29T14:05:50;1.98;;;1.70;;
80559;SDS011;70065;42.700;23.316;2023-07-29T14:08:16;2.55;;;1.67;;
80559;SDS011;70065;42.700;23.316;2023-07-29T14:10:41;2.25;;;2.03;;
80559;SDS011;70065;42.700;23.316;2023-07-29T14:13:07;2.08;;;1.88;;
80559;SDS011;70065;42.700;23.316;2023-07-29T14:15:33;2.17;;;1.98;;
80559;SDS011;70065;42.700;23.316;2023-07-29T14:17:58;2.28;;;1.80;;
80559;SDS011;70065;42.700;23.316;2023-07-29T14:20:24;1.80;;;1.70;;
80559;SDS011;70065;42.700;23.316;2023-07-29T14:22:50;2.28;;;1.92;;
80559;SDS011;70065;42.700;23.316;2023-07-29T14:25:16;2.00;;;1.77;;
80559;SDS011;70065;42.700;23.316;2023-07-29T14:27:42;2.35;;;2.15;;
80559;SDS011;70065;42.700;23.316;2023-07-29T14:30:07;1.88;;;1.77;;
80559;SDS011;70065;42.700;23.316;2023-07-29T14:32:33;2.10;;;1.90;;
80559;SDS011;70065;42.700;23.316;2023-07-29T14:34:59;2.42;;;1.85;;
80559;SDS011;70065;42.700;23.316;2023-07-29T14:37:29;2.20;;;1.90;;
80559;SDS011;70065;42.700;23.316;2023-07-29T14:39:55;1.75;;;1.65;;
80559;SDS011;70065;42.700;23.316;2023-07-29T14:42:23;2.03;;;1.92;;
80559;SDS011;70065;42.700;23.316;2023-07-29T14:44:48;2.03;;;1.80;;
80559;SDS011;70065;42.700;23.316;2023-07-29T14:47:14;2.33;;;2.13;;